sensor_id;sensor_type;location;lat;lon;timestamp;temperature;humidity
18317;DHT22;9284;52.298;21.164;2024-01-11T00:01:02;-5.40;1.00
18317;DHT22;9284;52.298;21.164;2024-01-11T00:03:32;-5.40;42.40
18317;DHT22;9284;52.298;21.164;2024-01-11T00:06:01;-5.50;67.50
18317;DHT22;9284;52.298;21.164;2024-01-11T00:08:31;-5.50;1.00
18317;DHT22;9284;52.298;21.164;2024-01-11T00:11:00;-5.50;5.00
18317;DHT22;9284;52.298;21.164;2024-01-11T00:13:28;-5.60;99.90
18317;DHT22;9284;52.298;21.164;2024-01-11T00:15:57;-5.60;1.00
18317;DHT22;9284;52.298;21.164;2024-01-11T00:18:26;-5.60;99.90
18317;DHT22;9284;52.298;21.164;2024-01-11T00:20:56;-5.60;99.90
18317;DHT22;9284;52.298;21.164;2024-01-11T00:23:24;-5.60;99.90
18317;DHT22;9284;52.298;21.164;2024-01-11T00:25:53;-5.70;99.90
18317;DHT22;9284;52.298;21.164;2024-01-11T00:28:21;-5.70;99.90
18317;DHT22;9284;52.298;21.164;2024-01-11T00:30:50;-5.70;99.90
18317;DHT22;9284;52.298;21.164;2024-01-11T00:33:18;-5.70;99.90
18317;DHT22;9284;52.298;21.164;2024-01-11T00:35:47;-5.60;99.90
18317;DHT22;9284;52.298;21.164;2024-01-11T00:38:17;-5.60;99.90
18317;DHT22;9284;52.298;21.164;2024-01-11T00:40:45;-5.60;99.90
18317;DHT22;9284;52.298;21.164;2024-01-11T00:43:14;-5.60;99.90
18317;DHT22;9284;52.298;21.164;2024-01-11T00:45:43;-5.50;43.60
18317;DHT22;9284;52.298;21.164;2024-01-11T00:48:11;-5.60;1.00
18317;DHT22;9284;52.298;21.164;2024-01-11T00:50:40;-5.40;1.00
18317;DHT22;9284;52.298;21.164;2024-01-11T00:53:08;-5.60;1.00
18317;DHT22;9284;52.298;21.164;2024-01-11T00:55:39;-5.50;1.00
18317;DHT22;9284;52.298;21.164;2024-01-11T00:58:08;-5.60;28.10
18317;DHT22;9284;52.298;21.164;2024-01-11T01:00:36;-5.60;68.40
18317;DHT22;9284;52.298;21.164;2024-01-11T01:03:05;-5.60;75.30
18317;DHT22;9284;52.298;21.164;2024-01-11T01:05:34;-5.60;99.90
18317;DHT22;9284;52.298;21.164;2024-01-11T01:08:03;-5.70;99.90
18317;DHT22;9284;52.298;21.164;2024-01-11T01:10:33;-5.60;1.00
18317;DHT22;9284;52.298;21.164;2024-01-11T01:13:03;-5.60;1.00
18317;DHT22;9284;52.298;21.164;2024-01-11T01:15:32;-5.60;1.00
18317;DHT22;9284;52.298;21.164;2024-01-11T01:18:00;-5.50;1.00
18317;DHT22;9284;52.298;21.164;2024-01-11T01:20:29;-5.60;1.00
18317;DHT22;9284;52.298;21.164;2024-01-11T01:22:58;-5.60;1.00
18317;DHT22;9284;52.298;21.164;2024-01-11T01:25:27;-5.50;1.00
18317;DHT22;9284;52.298;21.164;2024-01-11T01:28:03;-5.50;1.00
18317;DHT22;9284;52.298;21.164;2024-01-11T01:30:32;-5.60;1.00
18317;DHT22;9284;52.298;21.164;2024-01-11T01:33:01;-5.60;1.00
18317;DHT22;9284;52.298;21.164;2024-01-11T01:35:29;-5.50;1.00
18317;DHT22;9284;52.298;21.164;2024-01-11T01:37:58;-5.50;1.00
18317;DHT22;9284;52.298;21.164;2024-01-11T01:40:30;-5.50;1.00
18317;DHT22;9284;52.298;21.164;2024-01-11T01:42:59;-5.60;1.00
18317;DHT22;9284;52.298;21.164;2024-01-11T01:45:29;-5.50;17.80
18317;DHT22;9284;52.298;21.164;2024-01-11T01:47:59;-5.60;99.90
18317;DHT22;9284;52.298;21.164;2024-01-11T01:50:28;-5.50;99.90
18317;DHT22;9284;52.298;21.164;2024-01-11T01:52:57;-5.60;99.90
18317;DHT22;9284;52.298;21.164;2024-01-11T01:55:27;-5.60;99.90
18317;DHT22;9284;52.298;21.164;2024-01-11T01:57:57;-5.50;1.00
18317;DHT22;9284;52.298;21.164;2024-01-11T02:00:28;-5.60;1.00
18317;DHT22;9284;52.298;21.164;2024-01-11T02:02:57;-5.60;1.00
18317;DHT22;9284;52.298;21.164;2024-01-11T02:05:26;-5.60;1.00
18317;DHT22;9284;52.298;21.164;2024-01-11T02:07:56;-5.60;1.00
18317;DHT22;9284;52.298;21.164;2024-01-11T02:10:26;-5.60;1.00
18317;DHT22;9284;52.298;21.164;2024-01-11T02:12:57;-5.70;1.00
18317;DHT22;9284;52.298;21.164;2024-01-11T02:15:26;-5.70;99.90
18317;DHT22;9284;52.298;21.164;2024-01-11T02:17:56;-5.70;87.40
18317;DHT22;9284;52.298;21.164;2024-01-11T02:20:25;-5.60;99.90
18317;DHT22;9284;52.298;21.164;2024-01-11T02:22:58;-5.60;77.50
18317;DHT22;9284;52.298;21.164;2024-01-11T02:25:31;-5.60;99.90
18317;DHT22;9284;52.298;21.164;2024-01-11T02:27:59;-5.60;99.90
18317;DHT22;9284;52.298;21.164;2024-01-11T02:30:30;-5.60;99.90
18317;DHT22;9284;52.298;21.164;2024-01-11T02:32:59;-5.60;99.90
18317;DHT22;9284;52.298;21.164;2024-01-11T02:35:28;-5.60;99.90
18317;DHT22;9284;52.298;21.164;2024-01-11T02:37:57;-5.60;99.90
18317;DHT22;9284;52.298;21.164;2024-01-11T02:40:26;-5.60;96.70
18317;DHT22;9284;52.298;21.164;2024-01-11T02:42:56;-5.60;99.90
18317;DHT22;9284;52.298;21.164;2024-01-11T02:45:25;-5.60;99.90
18317;DHT22;9284;52.298;21.164;2024-01-11T02:47:53;-5.60;99.90
18317;DHT22;9284;52.298;21.164;2024-01-11T02:50:23;-5.60;99.90
18317;DHT22;9284;52.298;21.164;2024-01-11T02:52:51;-5.60;99.90
18317;DHT22;9284;52.298;21.164;2024-01-11T02:55:20;-5.60;99.90
18317;DHT22;9284;52.298;21.164;2024-01-11T02:57:48;-5.60;99.90
18317;DHT22;9284;52.298;21.164;2024-01-11T03:00:19;-5.50;99.90
18317;DHT22;9284;52.298;21.164;2024-01-11T03:02:46;-5.50;99.90
18317;DHT22;9284;52.298;21.164;2024-01-11T03:05:15;-5.50;99.90
18317;DHT22;9284;52.298;21.164;2024-01-11T03:07:43;-5.50;99.90
18317;DHT22;9284;52.298;21.164;2024-01-11T03:10:12;-5.50;99.90
18317;DHT22;9284;52.298;21.164;2024-01-11T03:12:40;-5.50;1.00
18317;DHT22;9284;52.298;21.164;2024-01-11T03:15:09;-5.50;1.00
18317;DHT22;9284;52.298;21.164;2024-01-11T03:17:39;-5.50;1.00
18317;DHT22;9284;52.298;21.164;2024-01-11T03:20:09;-5.40;1.00
18317;DHT22;9284;52.298;21.164;2024-01-11T03:22:45;-5.40;1.00
18317;DHT22;9284;52.298;21.164;2024-01-11T03:25:13;-5.30;1.00
18317;DHT22;9284;52.298;21.164;2024-01-11T03:27:42;-5.40;1.00
18317;DHT22;9284;52.298;21.164;2024-01-11T03:30:11;-5.30;99.90
18317;DHT22;9284;52.298;21.164;2024-01-11T03:32:42;-5.40;99.90
18317;DHT22;9284;52.298;21.164;2024-01-11T03:35:11;-5.30;99.90
18317;DHT22;9284;52.298;21.164;2024-01-11T03:37:40;-5.40;99.90
18317;DHT22;9284;52.298;21.164;2024-01-11T03:40:09;-5.40;99.90
18317;DHT22;9284;52.298;21.164;2024-01-11T03:42:38;-5.40;99.90
18317;DHT22;9284;52.298;21.164;2024-01-11T03:45:07;-5.30;1.00
18317;DHT22;9284;52.298;21.164;2024-01-11T03:47:36;-5.30;99.90
18317;DHT22;9284;52.298;21.164;2024-01-11T03:50:07;-5.20;99.90
18317;DHT22;9284;52.298;21.164;2024-01-11T03:52:37;-5.30;99.90
18317;DHT22;9284;52.298;21.164;2024-01-11T03:55:08;-5.20;1.00
18317;DHT22;9284;52.298;21.164;2024-01-11T03:57:37;-5.30;1.00
18317;DHT22;9284;52.298;21.164;2024-01-11T04:00:06;-5.30;1.00
18317;DHT22;9284;52.298;21.164;2024-01-11T04:02:37;-5.30;1.00
18317;DHT22;9284;52.298;21.164;2024-01-11T04:05:08;-5.20;1.00
18317;DHT22;9284;52.298;21.164;2024-01-11T04:07:36;-5.20;1.00
18317;DHT22;9284;52.298;21.164;2024-01-11T04:10:06;-5.10;1.00
18317;DHT22;9284;52.298;21.164;2024-01-11T04:12:36;-5.20;99.90
18317;DHT22;9284;52.298;21.164;2024-01-11T04:15:06;-5.10;99.90
18317;DHT22;9284;52.298;21.164;2024-01-11T04:17:35;-5.10;25.30
18317;DHT22;9284;52.298;21.164;2024-01-11T04:20:07;-5.00;1.00
18317;DHT22;9284;52.298;21.164;2024-01-11T04:22:36;-5.10;1.00
18317;DHT22;9284;52.298;21.164;2024-01-11T04:25:05;-5.10;1.10
18317;DHT22;9284;52.298;21.164;2024-01-11T04:27:34;-5.00;6.50
18317;DHT22;9284;52.298;21.164;2024-01-11T04:30:03;-4.90;1.00
18317;DHT22;9284;52.298;21.164;2024-01-11T04:32:31;-5.10;1.00
18317;DHT22;9284;52.298;21.164;2024-01-11T04:35:00;-5.00;1.00
18317;DHT22;9284;52.298;21.164;2024-01-11T04:37:29;-5.00;1.00
18317;DHT22;9284;52.298;21.164;2024-01-11T04:39:58;-5.00;1.00
18317;DHT22;9284;52.298;21.164;2024-01-11T04:42:27;-5.00;1.00
18317;DHT22;9284;52.298;21.164;2024-01-11T04:44:55;-5.00;1.00
18317;DHT22;9284;52.298;21.164;2024-01-11T04:47:26;-5.00;1.00
18317;DHT22;9284;52.298;21.164;2024-01-11T04:49:54;-5.00;1.00
18317;DHT22;9284;52.298;21.164;2024-01-11T04:52:23;-5.00;1.00
18317;DHT22;9284;52.298;21.164;2024-01-11T04:54:53;-4.90;1.00
18317;DHT22;9284;52.298;21.164;2024-01-11T04:57:21;-5.00;1.00
18317;DHT22;9284;52.298;21.164;2024-01-11T04:59:50;-4.90;1.00
18317;DHT22;9284;52.298;21.164;2024-01-11T05:02:20;-5.00;1.00
18317;DHT22;9284;52.298;21.164;2024-01-11T05:04:50;-4.90;53.10
18317;DHT22;9284;52.298;21.164;2024-01-11T05:07:18;-5.00;45.40
18317;DHT22;9284;52.298;21.164;2024-01-11T05:09:46;-4.90;86.70
18317;DHT22;9284;52.298;21.164;2024-01-11T05:12:16;-5.00;99.90
18317;DHT22;9284;52.298;21.164;2024-01-11T05:14:45;-5.00;99.90
18317;DHT22;9284;52.298;21.164;2024-01-11T05:17:13;-4.90;99.90
18317;DHT22;9284;52.298;21.164;2024-01-11T05:19:41;-5.00;99.90
18317;DHT22;9284;52.298;21.164;2024-01-11T05:22:10;-5.00;99.90
18317;DHT22;9284;52.298;21.164;2024-01-11T05:24:38;-5.00;99.90
18317;DHT22;9284;52.298;21.164;2024-01-11T05:27:07;-5.00;99.90
18317;DHT22;9284;52.298;21.164;2024-01-11T05:29:37;-4.90;99.90
18317;DHT22;9284;52.298;21.164;2024-01-11T05:32:06;-4.90;99.90
18317;DHT22;9284;52.298;21.164;2024-01-11T05:34:34;-4.80;99.90
18317;DHT22;9284;52.298;21.164;2024-01-11T05:37:03;-4.90;1.00
18317;DHT22;9284;52.298;21.164;2024-01-11T05:39:32;-4.90;1.00
18317;DHT22;9284;52.298;21.164;2024-01-11T05:42:00;-4.90;1.00
18317;DHT22;9284;52.298;21.164;2024-01-11T05:44:29;-4.90;1.00
18317;DHT22;9284;52.298;21.164;2024-01-11T05:46:59;-4.90;1.00
18317;DHT22;9284;52.298;21.164;2024-01-11T05:49:27;-5.00;1.00
18317;DHT22;9284;52.298;21.164;2024-01-11T05:51:56;-4.90;1.00
18317;DHT22;9284;52.298;21.164;2024-01-11T05:54:24;-4.80;1.00
18317;DHT22;9284;52.298;21.164;2024-01-11T05:56:55;-5.00;1.00
18317;DHT22;9284;52.298;21.164;2024-01-11T05:59:27;-4.90;1.00
18317;DHT22;9284;52.298;21.164;2024-01-11T06:01:55;-4.90;1.00
18317;DHT22;9284;52.298;21.164;2024-01-11T06:04:29;-4.70;1.00
18317;DHT22;9284;52.298;21.164;2024-01-11T06:06:58;-4.70;1.00
18317;DHT22;9284;52.298;21.164;2024-01-11T06:09:26;-4.90;1.00
18317;DHT22;9284;52.298;21.164;2024-01-11T06:11:54;-4.90;1.00
18317;DHT22;9284;52.298;21.164;2024-01-11T06:14:23;-4.90;1.00
18317;DHT22;9284;52.298;21.164;2024-01-11T06:16:51;-4.90;1.00
18317;DHT22;9284;52.298;21.164;2024-01-11T06:19:22;-4.80;1.00
18317;DHT22;9284;52.298;21.164;2024-01-11T06:21:52;-4.80;1.00
18317;DHT22;9284;52.298;21.164;2024-01-11T06:24:21;-4.90;1.00
18317;DHT22;9284;52.298;21.164;2024-01-11T06:26:49;-4.90;1.00
18317;DHT22;9284;52.298;21.164;2024-01-11T06:29:18;-4.70;1.00
18317;DHT22;9284;52.298;21.164;2024-01-11T06:31:46;-4.80;1.00
18317;DHT22;9284;52.298;21.164;2024-01-11T06:34:15;-4.80;1.00
18317;DHT22;9284;52.298;21.164;2024-01-11T06:36:43;-4.70;87.40
18317;DHT22;9284;52.298;21.164;2024-01-11T06:39:16;-4.80;99.90
18317;DHT22;9284;52.298;21.164;2024-01-11T06:41:44;-4.80;99.90
18317;DHT22;9284;52.298;21.164;2024-01-11T06:44:13;-4.70;99.90
18317;DHT22;9284;52.298;21.164;2024-01-11T06:46:41;-4.70;99.90
18317;DHT22;9284;52.298;21.164;2024-01-11T06:49:10;-4.60;99.90
18317;DHT22;9284;52.298;21.164;2024-01-11T06:51:39;-4.60;99.90
18317;DHT22;9284;52.298;21.164;2024-01-11T06:54:08;-4.60;99.90
18317;DHT22;9284;52.298;21.164;2024-01-11T06:56:37;-4.50;99.90
18317;DHT22;9284;52.298;21.164;2024-01-11T06:59:06;-4.50;1.00
18317;DHT22;9284;52.298;21.164;2024-01-11T07:01:35;-4.50;99.90
18317;DHT22;9284;52.298;21.164;2024-01-11T07:04:03;-4.30;99.90
18317;DHT22;9284;52.298;21.164;2024-01-11T07:06:33;-4.40;99.90
18317;DHT22;9284;52.298;21.164;2024-01-11T07:09:02;-4.40;99.90
18317;DHT22;9284;52.298;21.164;2024-01-11T07:11:34;-4.50;99.90
18317;DHT22;9284;52.298;21.164;2024-01-11T07:14:06;-4.40;99.90
18317;DHT22;9284;52.298;21.164;2024-01-11T07:16:36;-4.40;99.90
18317;DHT22;9284;52.298;21.164;2024-01-11T07:19:05;-4.40;99.90
18317;DHT22;9284;52.298;21.164;2024-01-11T07:21:34;-4.40;99.90
18317;DHT22;9284;52.298;21.164;2024-01-11T07:24:03;-4.30;99.90
18317;DHT22;9284;52.298;21.164;2024-01-11T07:26:33;-4.30;99.90
18317;DHT22;9284;52.298;21.164;2024-01-11T07:29:03;-4.30;3.80
18317;DHT22;9284;52.298;21.164;2024-01-11T07:31:35;-4.30;99.90
18317;DHT22;9284;52.298;21.164;2024-01-11T07:34:03;-4.10;99.90
18317;DHT22;9284;52.298;21.164;2024-01-11T07:36:39;-4.20;93.60
18317;DHT22;9284;52.298;21.164;2024-01-11T07:39:09;-4.30;99.90
18317;DHT22;9284;52.298;21.164;2024-01-11T07:41:40;-4.20;99.90
18317;DHT22;9284;52.298;21.164;2024-01-11T07:44:09;-4.10;99.90
18317;DHT22;9284;52.298;21.164;2024-01-11T07:46:39;-4.00;1.00
18317;DHT22;9284;52.298;21.164;2024-01-11T07:49:20;-4.10;1.00
18317;DHT22;9284;52.298;21.164;2024-01-11T07:51:52;-4.00;1.00
18317;DHT22;9284;52.298;21.164;2024-01-11T07:54:27;-4.10;1.00
18317;DHT22;9284;52.298;21.164;2024-01-11T07:56:58;-4.10;99.90
18317;DHT22;9284;52.298;21.164;2024-01-11T07:59:31;-4.00;99.90
18317;DHT22;9284;52.298;21.164;2024-01-11T08:02:09;-4.00;99.90
18317;DHT22;9284;52.298;21.164;2024-01-11T08:04:57;-4.20;99.90
18317;DHT22;9284;52.298;21.164;2024-01-11T08:07:29;-4.00;1.00
18317;DHT22;9284;52.298;21.164;2024-01-11T08:09:58;-3.90;1.00
18317;DHT22;9284;52.298;21.164;2024-01-11T08:12:31;-3.90;1.00
18317;DHT22;9284;52.298;21.164;2024-01-11T08:15:01;-3.80;1.00
18317;DHT22;9284;52.298;21.164;2024-01-11T08:17:31;-3.90;1.00
18317;DHT22;9284;52.298;21.164;2024-01-11T08:20:09;-3.70;1.00
18317;DHT22;9284;52.298;21.164;2024-01-11T08:22:40;-3.90;1.00
18317;DHT22;9284;52.298;21.164;2024-01-11T08:25:10;-3.80;1.00
18317;DHT22;9284;52.298;21.164;2024-01-11T08:27:40;-3.70;1.00
18317;DHT22;9284;52.298;21.164;2024-01-11T08:30:11;-3.80;1.00
18317;DHT22;9284;52.298;21.164;2024-01-11T08:32:49;-3.70;1.00
18317;DHT22;9284;52.298;21.164;2024-01-11T08:35:18;-3.70;1.00
18317;DHT22;9284;52.298;21.164;2024-01-11T08:37:57;-3.60;1.00
18317;DHT22;9284;52.298;21.164;2024-01-11T08:40:25;-3.60;1.00
18317;DHT22;9284;52.298;21.164;2024-01-11T08:42:59;-3.60;1.00
18317;DHT22;9284;52.298;21.164;2024-01-11T08:45:31;-3.50;1.00
18317;DHT22;9284;52.298;21.164;2024-01-11T08:48:01;-3.50;32.70
18317;DHT22;9284;52.298;21.164;2024-01-11T08:50:32;-3.50;76.00
18317;DHT22;9284;52.298;21.164;2024-01-11T08:53:01;-3.40;99.90
18317;DHT22;9284;52.298;21.164;2024-01-11T08:55:30;-3.40;98.80
18317;DHT22;9284;52.298;21.164;2024-01-11T08:58:01;-3.40;99.90
18317;DHT22;9284;52.298;21.164;2024-01-11T09:00:33;-3.40;99.90
18317;DHT22;9284;52.298;21.164;2024-01-11T09:03:06;-3.20;99.90
18317;DHT22;9284;52.298;21.164;2024-01-11T09:05:39;-3.30;99.90
18317;DHT22;9284;52.298;21.164;2024-01-11T09:08:08;-3.10;99.90
18317;DHT22;9284;52.298;21.164;2024-01-11T09:10:39;-3.10;99.90
18317;DHT22;9284;52.298;21.164;2024-01-11T09:13:09;-3.00;99.90
18317;DHT22;9284;52.298;21.164;2024-01-11T09:15:40;-3.00;99.90
18317;DHT22;9284;52.298;21.164;2024-01-11T09:18:12;-2.90;91.20
18317;DHT22;9284;52.298;21.164;2024-01-11T09:20:43;-2.70;1.00
18317;DHT22;9284;52.298;21.164;2024-01-11T09:23:13;-2.70;1.00
18317;DHT22;9284;52.298;21.164;2024-01-11T09:25:41;-2.60;1.00
18317;DHT22;9284;52.298;21.164;2024-01-11T09:28:12;-2.60;1.00
18317;DHT22;9284;52.298;21.164;2024-01-11T09:30:40;-2.50;1.00
18317;DHT22;9284;52.298;21.164;2024-01-11T09:33:10;-2.50;99.90
18317;DHT22;9284;52.298;21.164;2024-01-11T09:35:39;-2.30;98.10
18317;DHT22;9284;52.298;21.164;2024-01-11T09:38:08;-2.40;45.70
18317;DHT22;9284;52.298;21.164;2024-01-11T09:40:43;-2.40;1.00
18317;DHT22;9284;52.298;21.164;2024-01-11T09:43:12;-2.30;1.00
18317;DHT22;9284;52.298;21.164;2024-01-11T09:45:44;-2.30;1.00
18317;DHT22;9284;52.298;21.164;2024-01-11T09:48:14;-2.30;1.00
18317;DHT22;9284;52.298;21.164;2024-01-11T09:50:43;-2.10;1.00
18317;DHT22;9284;52.298;21.164;2024-01-11T09:53:12;-2.30;1.00
18317;DHT22;9284;52.298;21.164;2024-01-11T09:55:41;-2.10;1.00
18317;DHT22;9284;52.298;21.164;2024-01-11T09:58:10;-2.20;1.00
18317;DHT22;9284;52.298;21.164;2024-01-11T10:00:41;-2.20;1.00
18317;DHT22;9284;52.298;21.164;2024-01-11T10:03:11;-2.10;1.00
18317;DHT22;9284;52.298;21.164;2024-01-11T10:05:41;-2.10;1.00
18317;DHT22;9284;52.298;21.164;2024-01-11T10:08:12;-2.00;1.00
18317;DHT22;9284;52.298;21.164;2024-01-11T10:10:40;-2.10;1.00
18317;DHT22;9284;52.298;21.164;2024-01-11T10:13:10;-2.00;1.00
18317;DHT22;9284;52.298;21.164;2024-01-11T10:15:39;-2.10;1.00
18317;DHT22;9284;52.298;21.164;2024-01-11T10:18:07;-2.10;1.00
18317;DHT22;9284;52.298;21.164;2024-01-11T10:20:37;-2.10;99.90
18317;DHT22;9284;52.298;21.164;2024-01-11T10:23:07;-2.00;99.90
18317;DHT22;9284;52.298;21.164;2024-01-11T10:25:35;-1.90;99.90
18317;DHT22;9284;52.298;21.164;2024-01-11T10:28:07;-1.90;99.90
18317;DHT22;9284;52.298;21.164;2024-01-11T10:30:35;-1.80;99.90
18317;DHT22;9284;52.298;21.164;2024-01-11T10:33:07;-1.80;99.90
18317;DHT22;9284;52.298;21.164;2024-01-11T10:35:36;-1.70;99.90
18317;DHT22;9284;52.298;21.164;2024-01-11T10:38:10;-1.80;99.90
18317;DHT22;9284;52.298;21.164;2024-01-11T10:40:39;-1.70;99.90
18317;DHT22;9284;52.298;21.164;2024-01-11T10:43:09;-1.60;99.90
18317;DHT22;9284;52.298;21.164;2024-01-11T10:45:39;-1.70;1.00
18317;DHT22;9284;52.298;21.164;2024-01-11T10:48:15;-1.60;1.00
18317;DHT22;9284;52.298;21.164;2024-01-11T10:50:45;-1.50;1.00
18317;DHT22;9284;52.298;21.164;2024-01-11T10:53:25;-1.50;1.00
18317;DHT22;9284;52.298;21.164;2024-01-11T10:55:57;-1.50;1.00
18317;DHT22;9284;52.298;21.164;2024-01-11T10:58:27;-1.40;1.00
18317;DHT22;9284;52.298;21.164;2024-01-11T11:00:56;-1.40;1.00
18317;DHT22;9284;52.298;21.164;2024-01-11T11:03:26;-1.40;1.00
18317;DHT22;9284;52.298;21.164;2024-01-11T11:05:56;-1.40;1.00
18317;DHT22;9284;52.298;21.164;2024-01-11T11:08:27;-1.30;1.00
18317;DHT22;9284;52.298;21.164;2024-01-11T11:10:56;-1.40;1.00
18317;DHT22;9284;52.298;21.164;2024-01-11T11:13:26;-1.30;1.00
18317;DHT22;9284;52.298;21.164;2024-01-11T11:15:54;-1.30;1.00
18317;DHT22;9284;52.298;21.164;2024-01-11T11:18:28;-1.30;1.00
18317;DHT22;9284;52.298;21.164;2024-01-11T11:20:58;-1.30;1.00
18317;DHT22;9284;52.298;21.164;2024-01-11T11:23:28;-1.30;1.00
18317;DHT22;9284;52.298;21.164;2024-01-11T11:25:57;-1.20;1.00
18317;DHT22;9284;52.298;21.164;2024-01-11T11:28:26;-1.10;1.00
18317;DHT22;9284;52.298;21.164;2024-01-11T11:30:54;-1.10;1.00
18317;DHT22;9284;52.298;21.164;2024-01-11T11:33:25;-1.20;1.00
18317;DHT22;9284;52.298;21.164;2024-01-11T11:35:55;-1.00;1.00
18317;DHT22;9284;52.298;21.164;2024-01-11T11:38:28;-1.00;1.00
18317;DHT22;9284;52.298;21.164;2024-01-11T11:40:58;-1.00;1.00
18317;DHT22;9284;52.298;21.164;2024-01-11T11:43:28;-1.20;1.00
18317;DHT22;9284;52.298;21.164;2024-01-11T11:45:58;-1.20;1.00
18317;DHT22;9284;52.298;21.164;2024-01-11T11:48:50;-1.10;1.00
18317;DHT22;9284;52.298;21.164;2024-01-11T11:51:19;-1.00;8.10
18317;DHT22;9284;52.298;21.164;2024-01-11T11:53:54;-1.20;35.20
18317;DHT22;9284;52.298;21.164;2024-01-11T11:56:23;-1.20;54.70
18317;DHT22;9284;52.298;21.164;2024-01-11T11:58:54;-1.10;96.40
18317;DHT22;9284;52.298;21.164;2024-01-11T12:01:24;-1.10;99.90
18317;DHT22;9284;52.298;21.164;2024-01-11T12:03:53;-1.10;99.90
18317;DHT22;9284;52.298;21.164;2024-01-11T12:06:22;-1.00;99.90
18317;DHT22;9284;52.298;21.164;2024-01-11T12:08:54;-1.00;64.70
18317;DHT22;9284;52.298;21.164;2024-01-11T12:11:25;-1.10;87.50
18317;DHT22;9284;52.298;21.164;2024-01-11T12:13:54;-1.10;65.40
18317;DHT22;9284;52.298;21.164;2024-01-11T12:16:26;-1.00;76.10
18317;DHT22;9284;52.298;21.164;2024-01-11T12:18:55;-1.10;87.30
18317;DHT22;9284;52.298;21.164;2024-01-11T12:21:24;-1.00;90.10
18317;DHT22;9284;52.298;21.164;2024-01-11T12:23:55;-1.00;99.90
18317;DHT22;9284;52.298;21.164;2024-01-11T12:26:24;-0.80;26.50
18317;DHT22;9284;52.298;21.164;2024-01-11T12:28:54;-0.70;1.00
18317;DHT22;9284;52.298;21.164;2024-01-11T12:31:24;-0.90;1.00
18317;DHT22;9284;52.298;21.164;2024-01-11T12:33:52;-1.00;1.00
18317;DHT22;9284;52.298;21.164;2024-01-11T12:36:22;-0.90;11.90
18317;DHT22;9284;52.298;21.164;2024-01-11T12:38:52;-0.90;27.00
18317;DHT22;9284;52.298;21.164;2024-01-11T12:41:22;-0.90;28.10
18317;DHT22;9284;52.298;21.164;2024-01-11T12:43:52;-0.90;1.00
18317;DHT22;9284;52.298;21.164;2024-01-11T12:46:21;-0.90;1.00
18317;DHT22;9284;52.298;21.164;2024-01-11T12:48:50;-0.90;93.30
18317;DHT22;9284;52.298;21.164;2024-01-11T12:51:19;-0.80;81.20
18317;DHT22;9284;52.298;21.164;2024-01-11T12:53:52;-0.90;55.00
18317;DHT22;9284;52.298;21.164;2024-01-11T12:56:24;-0.80;89.50
18317;DHT22;9284;52.298;21.164;2024-01-11T12:59:05;-0.80;72.00
18317;DHT22;9284;52.298;21.164;2024-01-11T13:01:34;-0.80;41.70
18317;DHT22;9284;52.298;21.164;2024-01-11T13:04:04;-0.80;49.60
18317;DHT22;9284;52.298;21.164;2024-01-11T13:06:35;-0.80;63.10
18317;DHT22;9284;52.298;21.164;2024-01-11T13:09:03;-0.80;52.90
18317;DHT22;9284;52.298;21.164;2024-01-11T13:11:36;-0.80;59.40
18317;DHT22;9284;52.298;21.164;2024-01-11T13:14:05;-0.70;61.80
18317;DHT22;9284;52.298;21.164;2024-01-11T13:16:38;-0.60;18.30
18317;DHT22;9284;52.298;21.164;2024-01-11T13:19:07;-0.70;99.90
18317;DHT22;9284;52.298;21.164;2024-01-11T13:21:54;-0.60;99.90
18317;DHT22;9284;52.298;21.164;2024-01-11T13:24:25;-0.70;99.90
18317;DHT22;9284;52.298;21.164;2024-01-11T13:26:55;-0.70;99.90
18317;DHT22;9284;52.298;21.164;2024-01-11T13:29:23;-0.50;99.90
18317;DHT22;9284;52.298;21.164;2024-01-11T13:31:52;-0.70;99.90
18317;DHT22;9284;52.298;21.164;2024-01-11T13:34:21;-0.40;99.90
18317;DHT22;9284;52.298;21.164;2024-01-11T13:36:50;-0.60;99.90
18317;DHT22;9284;52.298;21.164;2024-01-11T13:39:29;-0.60;99.90
18317;DHT22;9284;52.298;21.164;2024-01-11T13:42:00;-0.60;99.90
18317;DHT22;9284;52.298;21.164;2024-01-11T13:44:30;-0.60;99.90
18317;DHT22;9284;52.298;21.164;2024-01-11T13:47:00;-0.60;99.90
18317;DHT22;9284;52.298;21.164;2024-01-11T13:49:28;-0.40;99.90
18317;DHT22;9284;52.298;21.164;2024-01-11T13:51:58;-0.60;99.90
18317;DHT22;9284;52.298;21.164;2024-01-11T13:54:28;-0.50;99.90
18317;DHT22;9284;52.298;21.164;2024-01-11T13:57:01;-0.40;99.90
18317;DHT22;9284;52.298;21.164;2024-01-11T13:59:29;-0.40;99.90
18317;DHT22;9284;52.298;21.164;2024-01-11T14:01:58;-0.40;99.90
18317;DHT22;9284;52.298;21.164;2024-01-11T14:04:28;-0.50;99.90
18317;DHT22;9284;52.298;21.164;2024-01-11T14:06:57;-0.50;99.90
18317;DHT22;9284;52.298;21.164;2024-01-11T14:09:28;-0.40;99.90
18317;DHT22;9284;52.298;21.164;2024-01-11T14:12:04;-0.50;99.90
18317;DHT22;9284;52.298;21.164;2024-01-11T14:14:33;-0.40;99.90
18317;DHT22;9284;52.298;21.164;2024-01-11T14:17:03;-0.30;99.90
18317;DHT22;9284;52.298;21.164;2024-01-11T14:19:32;-0.40;99.90
18317;DHT22;9284;52.298;21.164;2024-01-11T14:22:04;-0.30;99.90
18317;DHT22;9284;52.298;21.164;2024-01-11T14:24:33;-0.40;99.90
18317;DHT22;9284;52.298;21.164;2024-01-11T14:27:04;-0.40;99.90
18317;DHT22;9284;52.298;21.164;2024-01-11T14:29:33;-0.30;99.90
18317;DHT22;9284;52.298;21.164;2024-01-11T14:32:02;-0.40;99.90
18317;DHT22;9284;52.298;21.164;2024-01-11T14:34:33;-0.30;99.90
18317;DHT22;9284;52.298;21.164;2024-01-11T14:37:01;-0.40;99.90
18317;DHT22;9284;52.298;21.164;2024-01-11T14:39:30;-0.30;99.90
18317;DHT22;9284;52.298;21.164;2024-01-11T14:41:59;-0.30;1.00
18317;DHT22;9284;52.298;21.164;2024-01-11T14:44:29;-0.20;1.00
18317;DHT22;9284;52.298;21.164;2024-01-11T14:46:58;-0.20;1.00
18317;DHT22;9284;52.298;21.164;2024-01-11T14:49:26;-0.30;1.00
18317;DHT22;9284;52.298;21.164;2024-01-11T14:51:56;-0.20;1.00
18317;DHT22;9284;52.298;21.164;2024-01-11T14:54:27;-0.10;1.00
18317;DHT22;9284;52.298;21.164;2024-01-11T14:56:55;-0.20;1.00
18317;DHT22;9284;52.298;21.164;2024-01-11T14:59:24;-0.10;1.00
18317;DHT22;9284;52.298;21.164;2024-01-11T15:01:54;-0.20;1.00
18317;DHT22;9284;52.298;21.164;2024-01-11T15:04:23;0.00;1.00
18317;DHT22;9284;52.298;21.164;2024-01-11T15:06:56;-0.10;1.00
18317;DHT22;9284;52.298;21.164;2024-01-11T15:09:24;-0.10;1.00
18317;DHT22;9284;52.298;21.164;2024-01-11T15:11:55;0.00;1.00
18317;DHT22;9284;52.298;21.164;2024-01-11T15:14:31;0.00;1.00
18317;DHT22;9284;52.298;21.164;2024-01-11T15:17:03;0.10;1.00
18317;DHT22;9284;52.298;21.164;2024-01-11T15:19:32;0.20;1.00
18317;DHT22;9284;52.298;21.164;2024-01-11T15:22:05;0.20;1.00
18317;DHT22;9284;52.298;21.164;2024-01-11T15:24:35;0.20;1.00
18317;DHT22;9284;52.298;21.164;2024-01-11T15:27:04;0.40;1.00
18317;DHT22;9284;52.298;21.164;2024-01-11T15:29:33;0.30;1.00
18317;DHT22;9284;52.298;21.164;2024-01-11T15:32:03;0.30;1.00
18317;DHT22;9284;52.298;21.164;2024-01-11T15:34:32;0.40;1.00
18317;DHT22;9284;52.298;21.164;2024-01-11T15:37:01;0.50;1.00
18317;DHT22;9284;52.298;21.164;2024-01-11T15:39:30;0.40;1.00
18317;DHT22;9284;52.298;21.164;2024-01-11T15:42:01;0.40;1.00
18317;DHT22;9284;52.298;21.164;2024-01-11T15:44:31;0.40;1.00
18317;DHT22;9284;52.298;21.164;2024-01-11T15:47:03;0.50;1.00
18317;DHT22;9284;52.298;21.164;2024-01-11T15:49:32;0.40;1.00
18317;DHT22;9284;52.298;21.164;2024-01-11T15:52:01;0.50;1.00
18317;DHT22;9284;52.298;21.164;2024-01-11T15:54:30;0.80;1.00
18317;DHT22;9284;52.298;21.164;2024-01-11T15:56:58;0.80;1.00